createdAt,value
2023-05-21T00:01:55.856Z,9.88
2023-05-21T00:04:23.009Z,10.02
2023-05-21T00:06:50.976Z,10.30
2023-05-21T00:09:17.582Z,10.65
2023-05-21T00:11:44.291Z,9.63
2023-05-21T00:14:10.938Z,10.43
2023-05-21T00:16:37.650Z,11.25
2023-05-21T00:19:04.572Z,11.73
2023-05-21T00:21:31.717Z,12.52
2023-05-21T00:23:58.926Z,12.20
2023-05-21T00:26:25.691Z,12.75
2023-05-21T00:28:52.297Z,12.27
2023-05-21T00:31:19.109Z,14.27
2023-05-21T00:33:45.822Z,13.88
2023-05-21T00:36:14.540Z,14.70
2023-05-21T00:38:43.873Z,14.25
2023-05-21T00:41:11.136Z,14.32
2023-05-21T00:43:42.178Z,14.73
2023-05-21T00:46:16.545Z,13.68
2023-05-21T00:48:45.985Z,14.52
2023-05-21T00:51:14.949Z,13.80
2023-05-21T00:53:41.897Z,14.35
2023-05-21T00:56:09.077Z,13.80
2023-05-21T00:58:36.349Z,14.85
2023-05-21T01:01:04.070Z,13.23
2023-05-21T01:03:31.126Z,12.52
2023-05-21T01:06:00.298Z,14.40
2023-05-21T01:08:29.010Z,12.82
2023-05-21T01:10:56.799Z,13.90
2023-05-21T01:13:24.842Z,14.70
2023-05-21T01:15:53.791Z,14.35
2023-05-21T01:18:21.573Z,15.75
2023-05-21T01:20:49.209Z,15.25
2023-05-21T01:23:19.753Z,14.25
2023-05-21T01:25:47.436Z,11.93
2023-05-21T01:28:14.893Z,12.57
2023-05-21T01:30:42.682Z,12.52
2023-05-21T01:33:22.996Z,11.10
2023-05-21T01:36:07.124Z,12.98
2023-05-21T01:38:42.583Z,11.73
2023-05-21T01:41:14.265Z,11.15
2023-05-21T01:43:44.521Z,11.75
2023-05-21T01:46:17.399Z,9.93
2023-05-21T01:48:44.331Z,9.90
2023-05-21T01:51:11.930Z,9.45
2023-05-21T01:53:41.485Z,9.35
2023-05-21T01:56:08.281Z,8.77
2023-05-21T01:58:34.925Z,9.15
2023-05-21T02:01:02.853Z,9.02
2023-05-21T02:03:31.144Z,9.10
2023-05-21T02:05:58.089Z,8.45
2023-05-21T02:08:25.680Z,8.75
2023-05-21T02:10:52.444Z,8.88
2023-05-21T02:13:25.859Z,8.30
2023-05-21T02:15:54.917Z,8.65
2023-05-21T02:18:22.348Z,8.88
2023-05-21T02:20:50.235Z,8.52
2023-05-21T02:23:16.981Z,8.30
2023-05-21T02:25:44.059Z,8.00
2023-05-21T02:28:10.722Z,8.40
2023-05-21T02:30:37.425Z,8.95
2023-05-21T02:33:04.194Z,9.85
2023-05-21T02:35:30.906Z,8.45
2023-05-21T02:37:59.393Z,9.20
2023-05-21T02:40:26.289Z,8.80
2023-05-21T02:42:52.940Z,8.82
2023-05-21T02:45:19.539Z,9.20
2023-05-21T02:47:46.218Z,10.15
2023-05-21T02:50:14.780Z,10.02
2023-05-21T02:52:41.866Z,10.23
2023-05-21T02:55:09.394Z,10.35
2023-05-21T02:57:36.128Z,11.48
2023-05-21T03:00:03.904Z,10.43
2023-05-21T03:02:30.541Z,10.23
2023-05-21T03:04:57.288Z,10.80
2023-05-21T03:07:24.368Z,9.82
2023-05-21T03:09:51.017Z,10.82
2023-05-21T03:12:17.748Z,11.38
2023-05-21T03:14:46.463Z,9.55
2023-05-21T03:17:17.225Z,10.77
2023-05-21T03:19:44.798Z,8.30
2023-05-21T03:22:11.639Z,9.65
2023-05-21T03:24:38.982Z,8.82
2023-05-21T03:27:09.013Z,9.57
2023-05-21T03:29:36.572Z,10.43
2023-05-21T03:32:03.562Z,9.43
2023-05-21T03:34:30.347Z,9.95
2023-05-21T03:36:57.134Z,11.60
2023-05-21T03:39:23.905Z,10.50
2023-05-21T03:41:50.853Z,10.90
2023-05-21T03:44:18.051Z,11.40
2023-05-21T03:46:45.682Z,10.20
2023-05-21T03:49:12.557Z,10.75
2023-05-21T03:51:39.718Z,10.65
2023-05-21T03:54:06.571Z,10.10
2023-05-21T03:56:33.250Z,9.32
2023-05-21T03:58:59.953Z,9.32
2023-05-21T04:01:28.525Z,10.25
2023-05-21T04:03:55.687Z,8.98
2023-05-21T04:06:22.856Z,9.68
2023-05-21T04:08:49.950Z,9.32
2023-05-21T04:11:16.883Z,9.60
2023-05-21T04:13:43.552Z,10.32
2023-05-21T04:16:10.665Z,10.77
2023-05-21T04:18:37.714Z,12.00
2023-05-21T04:21:04.612Z,10.75
2023-05-21T04:23:31.366Z,10.88
2023-05-21T04:25:58.433Z,11.07
2023-05-21T04:28:28.995Z,11.25
2023-05-21T04:30:56.677Z,11.65
2023-05-21T04:33:23.392Z,10.65
2023-05-21T04:35:53.934Z,9.95
2023-05-21T04:38:20.647Z,11.98
2023-05-21T04:40:51.031Z,10.95
2023-05-21T04:43:18.448Z,9.73
2023-05-21T04:45:45.748Z,9.00
2023-05-21T04:48:12.804Z,8.88
2023-05-21T04:50:41.624Z,7.78
2023-05-21T04:53:08.463Z,8.98
2023-05-21T04:55:39.840Z,8.90
2023-05-21T04:58:07.449Z,7.80
2023-05-21T05:00:34.637Z,8.50
2023-05-21T05:03:01.457Z,7.18
2023-05-21T05:05:28.137Z,7.10
2023-05-21T05:07:54.802Z,7.57
2023-05-21T05:10:21.570Z,7.57
2023-05-21T05:12:49.252Z,7.30
2023-05-21T05:15:16.161Z,7.00
2023-05-21T05:17:42.886Z,7.00
2023-05-21T05:20:10.748Z,6.93
2023-05-21T05:22:37.538Z,7.28
2023-05-21T05:25:04.437Z,7.88
2023-05-21T05:27:31.079Z,7.80
2023-05-21T05:29:57.694Z,6.65
2023-05-21T05:35:09.109Z,6.30
2023-05-21T05:37:35.827Z,5.75
2023-05-21T05:40:02.544Z,5.50
2023-05-21T05:42:29.236Z,5.53
2023-05-21T05:44:56.267Z,5.32
2023-05-21T05:47:22.964Z,6.15
2023-05-21T05:49:49.702Z,5.57
2023-05-21T05:52:16.458Z,5.47
2023-05-21T05:54:43.058Z,5.78
2023-05-21T05:57:10.027Z,4.68
2023-05-21T05:59:36.865Z,4.75
2023-05-21T06:02:03.806Z,5.15
2023-05-21T06:04:30.454Z,4.53
2023-05-21T06:06:57.933Z,4.10
2023-05-21T06:09:24.812Z,3.47
2023-05-21T06:11:51.628Z,3.17
2023-05-21T06:14:18.558Z,4.22
2023-05-21T06:16:45.570Z,3.60
2023-05-21T06:19:12.392Z,4.30
2023-05-21T06:21:39.037Z,2.50
2023-05-21T06:24:06.167Z,2.40
2023-05-21T06:26:32.876Z,2.70
2023-05-21T06:28:59.641Z,2.35
2023-05-21T06:31:26.383Z,2.50
2023-05-21T06:33:53.640Z,1.88
2023-05-21T06:36:20.462Z,1.80
2023-05-21T06:38:48.003Z,2.70
2023-05-21T06:41:14.831Z,2.40
2023-05-21T06:43:41.945Z,2.38
2023-05-21T06:46:09.268Z,2.67
2023-05-21T06:48:36.147Z,1.90
2023-05-21T06:51:02.962Z,2.75
2023-05-21T06:53:29.721Z,2.33
2023-05-21T06:55:56.491Z,2.60
2023-05-21T06:58:23.266Z,2.80
2023-05-21T07:00:53.010Z,2.90
2023-05-21T07:03:20.121Z,2.63
2023-05-21T07:05:47.294Z,3.00
2023-05-21T07:08:14.302Z,2.72
2023-05-21T07:10:41.101Z,2.05
2023-05-21T07:13:07.904Z,2.38
2023-05-21T07:15:34.694Z,2.05
2023-05-21T07:18:01.435Z,2.00
2023-05-21T07:20:28.384Z,2.65
2023-05-21T07:22:55.018Z,2.20
2023-05-21T07:25:21.835Z,2.15
2023-05-21T07:27:48.720Z,2.17
2023-05-21T07:30:15.866Z,2.60
2023-05-21T07:32:42.730Z,2.80
2023-05-21T07:35:09.788Z,1.90
2023-05-21T07:37:36.484Z,2.20
2023-05-21T07:40:04.095Z,2.58
2023-05-21T07:42:31.243Z,2.47
2023-05-21T07:44:58.351Z,2.00
2023-05-21T07:47:25.012Z,1.70
2023-05-21T07:49:51.747Z,1.65
2023-05-21T07:52:18.573Z,2.20
2023-05-21T07:54:45.577Z,2.75
2023-05-21T07:57:12.643Z,2.30
2023-05-21T07:59:39.372Z,2.58
2023-05-21T08:02:06.354Z,1.70
2023-05-21T08:04:33.073Z,1.23
2023-05-21T08:06:59.857Z,0.82
2023-05-21T08:09:26.425Z,2.67
2023-05-21T08:11:53.615Z,1.00
2023-05-21T08:14:20.252Z,0.95
2023-05-21T08:16:47.019Z,1.40
2023-05-21T08:19:13.781Z,0.85
2023-05-21T08:21:40.729Z,0.82
2023-05-21T08:24:07.487Z,0.70
2023-05-21T08:26:34.290Z,0.73
2023-05-21T08:29:01.155Z,1.15
2023-05-21T08:31:28.230Z,0.80
2023-05-21T08:33:56.586Z,0.60
2023-05-21T08:36:25.067Z,1.08
2023-05-21T08:38:51.743Z,0.60
2023-05-21T08:41:23.256Z,0.90
2023-05-21T08:43:58.071Z,0.80
2023-05-21T08:46:26.009Z,0.73
2023-05-21T08:48:56.025Z,0.90
2023-05-21T08:51:22.900Z,0.75
2023-05-21T08:53:51.081Z,0.70
2023-05-21T08:56:18.371Z,0.80
2023-05-21T08:58:46.815Z,1.10
2023-05-21T09:01:14.215Z,0.77
2023-05-21T09:03:41.168Z,0.68
2023-05-21T09:06:11.343Z,0.93
2023-05-21T09:08:44.009Z,0.68
2023-05-21T09:11:11.206Z,1.00
2023-05-21T09:13:43.680Z,0.85
2023-05-21T09:16:10.971Z,2.15
2023-05-21T09:18:37.678Z,0.95
2023-05-21T09:21:24.762Z,0.75
2023-05-21T09:23:56.342Z,0.70
2023-05-21T09:26:24.020Z,0.70
2023-05-21T09:28:51.971Z,1.10
2023-05-21T09:31:18.797Z,1.02
2023-05-21T09:33:48.347Z,0.80
2023-05-21T09:36:15.447Z,1.52
2023-05-21T09:38:42.136Z,1.55
2023-05-21T09:41:09.015Z,1.30
2023-05-21T09:43:36.881Z,1.40
2023-05-21T09:46:04.495Z,0.80
2023-05-21T09:48:38.000Z,0.75
2023-05-21T09:51:18.102Z,0.93
2023-05-21T09:53:48.991Z,0.80
2023-05-21T09:56:16.982Z,0.60
2023-05-21T09:58:44.533Z,0.70
2023-05-21T10:01:11.587Z,0.80
2023-05-21T10:03:40.397Z,0.70
2023-05-21T10:06:09.519Z,0.68
2023-05-21T10:08:40.295Z,0.60
2023-05-21T10:11:07.330Z,0.63
2023-05-21T10:13:39.887Z,1.15
2023-05-21T10:16:07.181Z,0.80
2023-05-21T10:18:35.383Z,0.70
2023-05-21T10:21:02.985Z,0.93
2023-05-21T10:23:30.327Z,0.70
2023-05-21T10:25:58.421Z,0.80
2023-05-21T10:28:25.983Z,0.90
2023-05-21T10:30:54.529Z,1.05
2023-05-21T10:33:24.509Z,0.70
2023-05-21T10:35:53.430Z,0.90
2023-05-21T10:38:21.272Z,0.70
2023-05-21T10:40:49.639Z,0.80
2023-05-21T10:43:39.025Z,0.82
2023-05-21T10:46:26.985Z,0.93
2023-05-21T10:49:18.034Z,0.65
2023-05-21T10:51:56.579Z,0.70
2023-05-21T10:54:57.438Z,0.77
2023-05-21T10:58:02.893Z,0.90
2023-05-21T11:00:31.694Z,0.80
2023-05-21T11:03:00.059Z,1.10
2023-05-21T11:05:54.870Z,0.90
2023-05-21T11:08:25.962Z,0.82
2023-05-21T11:10:58.142Z,1.17
2023-05-21T11:13:28.703Z,0.93
2023-05-21T11:15:59.017Z,1.05
2023-05-21T11:18:38.114Z,1.10
2023-05-21T11:21:16.368Z,1.00
2023-05-21T11:23:52.780Z,0.82
2023-05-21T11:26:21.861Z,0.90
2023-05-21T11:29:07.334Z,1.52
2023-05-21T11:31:38.919Z,0.88
2023-05-21T11:34:13.211Z,0.88
2023-05-21T11:36:46.011Z,1.23
2023-05-21T11:39:26.484Z,1.10
2023-05-21T11:41:54.317Z,1.00
2023-05-21T11:44:40.879Z,1.02
2023-05-21T11:47:09.711Z,1.00
2023-05-21T11:49:37.181Z,1.35
2023-05-21T11:52:05.751Z,0.75
2023-05-21T11:54:37.053Z,0.90
2023-05-21T11:57:10.298Z,1.00
2023-05-21T11:59:37.249Z,1.10
2023-05-21T12:02:05.268Z,0.98
2023-05-21T12:04:33.244Z,0.70
2023-05-21T12:07:04.231Z,0.88
2023-05-21T12:09:30.853Z,1.52
2023-05-21T12:11:57.510Z,1.35
2023-05-21T12:14:24.309Z,0.90
2023-05-21T12:16:51.053Z,1.20
2023-05-21T12:19:19.243Z,1.42
2023-05-21T12:21:46.497Z,1.02
2023-05-21T12:24:13.495Z,1.42
2023-05-21T12:26:42.175Z,1.50
2023-05-21T12:29:08.928Z,1.33
2023-05-21T12:31:48.332Z,1.10
2023-05-21T12:34:18.822Z,1.42
2023-05-21T12:36:51.919Z,1.20
2023-05-21T12:39:20.440Z,1.30
2023-05-21T12:41:47.438Z,1.17
2023-05-21T12:44:14.342Z,1.40
2023-05-21T12:46:41.545Z,1.10
2023-05-21T12:49:08.995Z,1.10
2023-05-21T12:51:40.075Z,1.00
2023-05-21T12:54:13.146Z,1.23
2023-05-21T12:56:46.190Z,1.27
2023-05-21T12:59:15.551Z,0.90
2023-05-21T13:01:42.292Z,1.20
2023-05-21T13:04:09.572Z,1.10
2023-05-21T13:06:45.865Z,1.02
2023-05-21T13:09:13.412Z,1.35
2023-05-21T13:11:40.441Z,1.58
2023-05-21T13:14:07.147Z,1.42
2023-05-21T13:16:34.436Z,2.15
2023-05-21T13:19:01.169Z,1.67
2023-05-21T13:21:27.847Z,2.15
2023-05-21T13:23:54.481Z,1.42
2023-05-21T13:26:21.656Z,1.08
2023-05-21T13:28:48.347Z,1.27
2023-05-21T13:31:16.282Z,1.25
2023-05-21T13:33:43.052Z,1.77
2023-05-21T13:36:09.868Z,1.30
2023-05-21T13:38:36.557Z,1.63
2023-05-21T13:41:03.310Z,1.70
2023-05-21T13:43:30.054Z,1.55
2023-05-21T13:45:57.234Z,1.02
2023-05-21T13:48:24.145Z,1.40
2023-05-21T13:50:50.875Z,1.20
2023-05-21T13:53:17.559Z,1.30
2023-05-21T13:55:44.214Z,1.23
2023-05-21T13:58:10.950Z,1.00
2023-05-21T14:00:38.273Z,1.00
2023-05-21T14:03:08.027Z,1.20
2023-05-21T14:05:34.749Z,1.17
2023-05-21T14:08:01.772Z,1.10
2023-05-21T14:10:28.438Z,1.20
2023-05-21T14:13:01.532Z,1.00
2023-05-21T14:15:34.452Z,0.90
2023-05-21T14:18:01.324Z,1.05
2023-05-21T14:20:27.981Z,1.20
2023-05-21T14:22:54.923Z,1.15
2023-05-21T14:25:21.976Z,1.10
2023-05-21T14:27:48.605Z,1.00
2023-05-21T14:30:15.396Z,0.88
2023-05-21T14:32:42.084Z,1.08
2023-05-21T14:35:09.000Z,1.10
2023-05-21T14:37:35.702Z,0.90
2023-05-21T14:40:03.147Z,0.95
2023-05-21T14:42:30.709Z,1.27
2023-05-21T14:44:58.958Z,1.52
2023-05-21T14:47:28.862Z,1.23
2023-05-21T14:49:55.686Z,1.33
2023-05-21T14:52:22.338Z,1.00
2023-05-21T14:54:49.263Z,1.20
2023-05-21T14:57:17.020Z,1.25
2023-05-21T14:59:43.718Z,1.17
2023-05-21T15:02:11.361Z,1.10
2023-05-21T15:04:38.196Z,1.25
2023-05-21T15:07:05.019Z,1.70
2023-05-21T15:09:31.678Z,1.60
2023-05-21T15:11:58.369Z,2.08
2023-05-21T15:14:25.399Z,1.77
2023-05-21T15:16:52.874Z,2.20
2023-05-21T15:19:19.730Z,1.73
2023-05-21T15:21:46.742Z,2.50
2023-05-21T15:24:13.424Z,2.17
2023-05-21T15:26:40.181Z,2.30
2023-05-21T15:29:06.897Z,2.53
2023-05-21T15:31:33.684Z,1.83
2023-05-21T15:34:00.600Z,2.30
2023-05-21T15:36:27.363Z,1.80
2023-05-21T15:38:54.647Z,2.22
2023-05-21T15:41:22.512Z,2.08
2023-05-21T15:43:50.084Z,2.25
2023-05-21T15:46:16.745Z,2.08
2023-05-21T15:48:45.039Z,2.10
2023-05-21T15:51:11.748Z,1.83
2023-05-21T15:53:38.510Z,2.28
2023-05-21T15:56:05.533Z,2.40
2023-05-21T15:58:32.301Z,2.40
2023-05-21T16:00:59.781Z,2.50
2023-05-21T16:03:28.232Z,1.80
2023-05-21T16:05:54.925Z,1.42
2023-05-21T16:08:21.771Z,1.58
2023-05-21T16:10:48.495Z,1.20
2023-05-21T16:13:15.458Z,0.88
2023-05-21T16:15:42.269Z,1.10
2023-05-21T16:18:10.089Z,1.00
2023-05-21T16:20:37.324Z,0.95
2023-05-21T16:23:06.413Z,1.20
2023-05-21T16:25:34.631Z,1.02
2023-05-21T16:28:02.526Z,0.90
2023-05-21T16:30:29.682Z,0.80
2023-05-21T16:32:56.297Z,1.17
2023-05-21T16:35:23.012Z,0.80
2023-05-21T16:37:50.085Z,0.98
2023-05-21T16:40:16.739Z,0.90
2023-05-21T16:42:43.817Z,0.88
2023-05-21T16:45:15.758Z,1.02
2023-05-21T16:47:42.632Z,1.10
2023-05-21T16:50:09.845Z,1.08
2023-05-21T16:52:36.552Z,0.90
2023-05-21T16:55:03.707Z,1.10
2023-05-21T16:57:30.395Z,0.90
2023-05-21T16:59:59.483Z,0.85
2023-05-21T17:02:26.231Z,0.90
2023-05-21T17:04:53.321Z,0.95
2023-05-21T17:07:20.050Z,1.17
2023-05-21T17:09:47.111Z,0.90
2023-05-21T17:12:14.712Z,1.13
2023-05-21T17:14:41.393Z,1.38
2023-05-21T17:17:08.246Z,0.90
2023-05-21T17:19:35.044Z,1.23
2023-05-21T17:22:01.839Z,0.90
2023-05-21T17:24:28.527Z,0.70
2023-05-21T17:26:55.384Z,1.08
2023-05-21T17:29:22.096Z,0.90
2023-05-21T17:31:49.056Z,1.38
2023-05-21T17:34:16.671Z,0.88
2023-05-21T17:36:43.567Z,0.90
2023-05-21T17:39:10.258Z,0.85
2023-05-21T17:41:37.291Z,1.02
2023-05-21T17:44:04.262Z,1.15
2023-05-21T17:46:31.414Z,1.55
2023-05-21T17:48:58.537Z,1.17
2023-05-21T17:51:25.226Z,1.30
2023-05-21T17:53:54.946Z,1.33
2023-05-21T17:56:21.698Z,1.70
2023-05-21T17:58:51.269Z,1.88
2023-05-21T18:01:18.494Z,1.80
2023-05-21T18:03:45.561Z,1.80
2023-05-21T18:06:12.388Z,1.38
2023-05-21T18:08:39.037Z,1.73
2023-05-21T18:11:05.729Z,1.98
2023-05-21T18:13:32.772Z,1.73
2023-05-21T18:15:59.691Z,1.95
2023-05-21T18:18:26.403Z,1.80
2023-05-21T18:20:53.681Z,2.50
2023-05-21T18:23:22.155Z,1.85
2023-05-21T18:25:48.904Z,1.75
2023-05-21T18:28:16.172Z,1.98
2023-05-21T18:30:42.994Z,2.15
2023-05-21T18:33:13.219Z,2.20
2023-05-21T18:35:40.937Z,1.25
2023-05-21T18:38:11.975Z,1.30
2023-05-21T18:40:39.411Z,1.45
2023-05-21T18:43:06.558Z,1.73
2023-05-21T18:45:34.564Z,1.80
2023-05-21T18:48:03.130Z,2.22
2023-05-21T18:50:30.105Z,2.40
2023-05-21T18:52:56.898Z,1.80
2023-05-21T18:55:23.803Z,2.13
2023-05-21T18:57:50.911Z,2.65
2023-05-21T19:00:18.302Z,3.17
2023-05-21T19:02:46.411Z,2.78
2023-05-21T19:05:13.626Z,3.03
2023-05-21T19:07:43.386Z,2.60
2023-05-21T19:10:11.659Z,2.67
2023-05-21T19:12:39.893Z,2.88
2023-05-21T19:15:07.464Z,2.58
2023-05-21T19:17:36.236Z,2.95
2023-05-21T19:20:05.508Z,2.63
2023-05-21T19:22:32.981Z,3.08
2023-05-21T19:25:00.815Z,2.35
2023-05-21T19:27:29.746Z,2.70
2023-05-21T19:29:56.748Z,2.60
2023-05-21T19:32:23.859Z,1.83
2023-05-21T19:34:51.624Z,2.70
2023-05-21T19:37:18.664Z,2.20
2023-05-21T19:39:49.673Z,2.20
2023-05-21T19:42:17.540Z,2.20
2023-05-21T19:44:44.802Z,1.92
2023-05-21T19:47:11.409Z,2.45
2023-05-21T19:49:38.617Z,1.92
2023-05-21T19:52:06.044Z,1.90
2023-05-21T19:54:32.700Z,2.55
2023-05-21T19:57:00.163Z,2.25
2023-05-21T19:59:31.114Z,2.60
2023-05-21T20:01:58.476Z,3.30
2023-05-21T20:04:25.696Z,3.15
2023-05-21T20:06:52.437Z,3.42
2023-05-21T20:09:20.668Z,3.08
2023-05-21T20:11:49.249Z,2.47
2023-05-21T20:14:16.037Z,2.42
2023-05-21T20:16:47.261Z,2.58
2023-05-21T20:19:15.550Z,1.50
2023-05-21T20:21:42.296Z,2.00
2023-05-21T20:24:09.131Z,1.83
2023-05-21T20:26:37.493Z,2.33
2023-05-21T20:29:04.542Z,1.70
2023-05-21T20:31:31.896Z,2.42
2023-05-21T20:33:58.930Z,2.13
2023-05-21T20:36:25.953Z,1.90
2023-05-21T20:38:52.767Z,1.80
2023-05-21T20:41:20.231Z,1.15
2023-05-21T20:43:47.387Z,1.73
2023-05-21T20:46:14.486Z,1.30
2023-05-21T20:48:41.843Z,1.02
2023-05-21T20:51:08.949Z,1.30
2023-05-21T20:53:35.746Z,0.95
2023-05-21T20:56:02.551Z,1.10
2023-05-21T20:58:29.269Z,0.93
2023-05-21T21:00:57.447Z,0.93
2023-05-21T21:03:24.449Z,0.88
2023-05-21T21:05:52.886Z,0.95
2023-05-21T21:08:19.837Z,0.80
2023-05-21T21:10:47.012Z,1.00
2023-05-21T21:13:14.772Z,1.10
2023-05-21T21:15:43.191Z,1.35
2023-05-21T21:18:13.069Z,0.98
2023-05-21T21:20:41.662Z,0.90
2023-05-21T21:23:09.068Z,1.10
2023-05-21T21:25:36.000Z,0.95
2023-05-21T21:28:02.718Z,0.95
2023-05-21T21:30:29.334Z,1.05
2023-05-21T21:32:56.246Z,1.00
2023-05-21T21:35:22.979Z,1.10
2023-05-21T21:37:49.861Z,0.98
2023-05-21T21:40:16.642Z,1.90
2023-05-21T21:42:45.383Z,1.25
2023-05-21T21:45:13.380Z,1.90
2023-05-21T21:47:40.271Z,1.60
2023-05-21T21:50:08.226Z,1.27
2023-05-21T21:52:34.949Z,1.30
2023-05-21T21:55:01.731Z,2.08
2023-05-21T21:57:30.201Z,1.40
2023-05-21T21:59:57.546Z,1.35
2023-05-21T22:02:26.295Z,1.88
2023-05-21T22:04:53.045Z,1.70
2023-05-21T22:07:19.936Z,1.75
2023-05-21T22:09:46.691Z,1.70
2023-05-21T22:12:13.634Z,2.25
2023-05-21T22:14:40.675Z,2.50
2023-05-21T22:17:08.791Z,2.13
2023-05-21T22:19:36.498Z,2.10
2023-05-21T22:22:05.013Z,2.15
2023-05-21T22:24:33.391Z,1.88
2023-05-21T22:27:00.767Z,2.50
2023-05-21T22:29:27.930Z,2.08
2023-05-21T22:31:54.840Z,2.22
2023-05-21T22:34:22.449Z,2.30
2023-05-21T22:36:49.266Z,2.20
2023-05-21T22:39:15.960Z,2.15
2023-05-21T22:41:42.893Z,2.58
2023-05-21T22:44:10.838Z,2.33
2023-05-21T22:46:38.445Z,2.33
2023-05-21T22:49:05.212Z,2.40
2023-05-21T22:51:34.959Z,3.00
2023-05-21T22:54:01.983Z,2.38
2023-05-21T22:56:29.038Z,2.53
2023-05-21T22:58:56.722Z,2.58
2023-05-21T23:01:24.040Z,2.78
2023-05-21T23:03:51.840Z,2.63
2023-05-21T23:06:19.236Z,2.80
2023-05-21T23:08:46.108Z,2.38
2023-05-21T23:11:13.611Z,3.17
2023-05-21T23:13:40.541Z,2.55
2023-05-21T23:16:07.693Z,2.72
2023-05-21T23:18:35.748Z,3.13
2023-05-21T23:21:02.634Z,3.33
2023-05-21T23:23:29.546Z,3.08
2023-05-21T23:25:57.834Z,3.50
2023-05-21T23:28:25.814Z,3.40
2023-05-21T23:30:53.460Z,3.00
2023-05-21T23:33:20.665Z,3.50
2023-05-21T23:35:47.621Z,3.45
2023-05-21T23:38:14.528Z,3.30
2023-05-21T23:40:41.859Z,3.05
2023-05-21T23:43:08.544Z,2.70
2023-05-21T23:45:37.205Z,3.55
2023-05-21T23:48:04.317Z,3.10
2023-05-21T23:50:31.216Z,2.97
2023-05-21T23:52:58.919Z,3.92
2023-05-21T23:55:25.845Z,3.50
2023-05-21T23:57:52.719Z,3.45
